sensor_id;sensor_type;location;lat;lon;timestamp;temperature;humidity
17992;DHT22;9121;50.926;5.340;2024-02-21T00:01:31;10.00;99.90
17992;DHT22;9121;50.926;5.340;2024-02-21T00:03:58;9.90;99.90
17992;DHT22;9121;50.926;5.340;2024-02-21T00:06:25;10.00;99.90
17992;DHT22;9121;50.926;5.340;2024-02-21T00:08:52;10.00;99.90
17992;DHT22;9121;50.926;5.340;2024-02-21T00:11:19;9.90;99.90
17992;DHT22;9121;50.926;5.340;2024-02-21T00:13:46;9.90;99.90
17992;DHT22;9121;50.926;5.340;2024-02-21T00:16:13;9.90;99.90
17992;DHT22;9121;50.926;5.340;2024-02-21T00:18:42;9.90;99.90
17992;DHT22;9121;50.926;5.340;2024-02-21T00:21:09;9.90;99.90
17992;DHT22;9121;50.926;5.340;2024-02-21T00:23:40;9.90;99.90
17992;DHT22;9121;50.926;5.340;2024-02-21T00:26:07;10.00;99.90
17992;DHT22;9121;50.926;5.340;2024-02-21T00:28:34;10.00;99.90
17992;DHT22;9121;50.926;5.340;2024-02-21T00:31:01;9.90;99.90
17992;DHT22;9121;50.926;5.340;2024-02-21T00:33:28;9.90;99.90
17992;DHT22;9121;50.926;5.340;2024-02-21T00:35:56;9.90;99.90
17992;DHT22;9121;50.926;5.340;2024-02-21T00:38:23;9.90;99.90
17992;DHT22;9121;50.926;5.340;2024-02-21T00:40:50;9.90;99.90
17992;DHT22;9121;50.926;5.340;2024-02-21T00:43:17;9.90;99.90
17992;DHT22;9121;50.926;5.340;2024-02-21T00:45:44;9.90;99.90
17992;DHT22;9121;50.926;5.340;2024-02-21T00:48:11;9.90;99.90
17992;DHT22;9121;50.926;5.340;2024-02-21T00:50:38;9.80;99.90
17992;DHT22;9121;50.926;5.340;2024-02-21T00:53:06;9.80;99.90
17992;DHT22;9121;50.926;5.340;2024-02-21T00:55:34;9.80;99.90
17992;DHT22;9121;50.926;5.340;2024-02-21T00:58:01;9.90;99.90
17992;DHT22;9121;50.926;5.340;2024-02-21T01:00:28;9.80;99.90
17992;DHT22;9121;50.926;5.340;2024-02-21T01:02:55;9.90;99.90
17992;DHT22;9121;50.926;5.340;2024-02-21T01:05:22;9.90;99.90
17992;DHT22;9121;50.926;5.340;2024-02-21T01:07:49;9.90;99.90
17992;DHT22;9121;50.926;5.340;2024-02-21T01:10:17;9.90;99.90
17992;DHT22;9121;50.926;5.340;2024-02-21T01:12:44;10.00;99.90
17992;DHT22;9121;50.926;5.340;2024-02-21T01:15:11;10.00;99.90
17992;DHT22;9121;50.926;5.340;2024-02-21T01:17:38;10.00;99.90
17992;DHT22;9121;50.926;5.340;2024-02-21T01:20:07;9.90;99.90
17992;DHT22;9121;50.926;5.340;2024-02-21T01:22:34;9.90;99.90
17992;DHT22;9121;50.926;5.340;2024-02-21T01:25:00;9.90;99.90
17992;DHT22;9121;50.926;5.340;2024-02-21T01:27:29;9.90;99.90
17992;DHT22;9121;50.926;5.340;2024-02-21T01:29:56;9.90;99.90
17992;DHT22;9121;50.926;5.340;2024-02-21T01:32:23;9.90;99.90
17992;DHT22;9121;50.926;5.340;2024-02-21T01:34:50;9.90;99.90
17992;DHT22;9121;50.926;5.340;2024-02-21T01:37:18;9.90;99.90
17992;DHT22;9121;50.926;5.340;2024-02-21T01:39:45;9.80;99.90
17992;DHT22;9121;50.926;5.340;2024-02-21T01:42:12;9.80;99.90
17992;DHT22;9121;50.926;5.340;2024-02-21T01:44:40;9.80;99.90
17992;DHT22;9121;50.926;5.340;2024-02-21T01:47:08;9.80;99.90
17992;DHT22;9121;50.926;5.340;2024-02-21T01:49:35;9.80;99.90
17992;DHT22;9121;50.926;5.340;2024-02-21T01:52:02;9.80;99.90
17992;DHT22;9121;50.926;5.340;2024-02-21T01:54:31;9.80;99.90
17992;DHT22;9121;50.926;5.340;2024-02-21T01:56:58;9.80;99.90
17992;DHT22;9121;50.926;5.340;2024-02-21T01:59:25;9.80;99.90
17992;DHT22;9121;50.926;5.340;2024-02-21T02:01:55;9.80;99.90
17992;DHT22;9121;50.926;5.340;2024-02-21T02:04:23;9.80;99.90
17992;DHT22;9121;50.926;5.340;2024-02-21T02:06:51;9.80;99.90
17992;DHT22;9121;50.926;5.340;2024-02-21T02:09:18;9.80;99.90
17992;DHT22;9121;50.926;5.340;2024-02-21T02:11:45;9.80;99.90
17992;DHT22;9121;50.926;5.340;2024-02-21T02:14:12;9.80;99.90
17992;DHT22;9121;50.926;5.340;2024-02-21T02:16:39;9.80;99.90
17992;DHT22;9121;50.926;5.340;2024-02-21T02:19:08;9.90;99.90
17992;DHT22;9121;50.926;5.340;2024-02-21T02:21:39;9.90;99.90
17992;DHT22;9121;50.926;5.340;2024-02-21T02:24:10;9.80;99.90
17992;DHT22;9121;50.926;5.340;2024-02-21T02:26:36;9.80;99.90
17992;DHT22;9121;50.926;5.340;2024-02-21T02:29:04;9.80;99.90
17992;DHT22;9121;50.926;5.340;2024-02-21T02:31:31;9.80;99.90
17992;DHT22;9121;50.926;5.340;2024-02-21T02:33:58;9.80;99.90
17992;DHT22;9121;50.926;5.340;2024-02-21T02:36:24;9.90;99.90
17992;DHT22;9121;50.926;5.340;2024-02-21T02:38:51;9.80;99.90
17992;DHT22;9121;50.926;5.340;2024-02-21T02:41:20;9.80;99.90
17992;DHT22;9121;50.926;5.340;2024-02-21T02:43:47;9.80;99.90
17992;DHT22;9121;50.926;5.340;2024-02-21T02:46:13;9.70;99.90
17992;DHT22;9121;50.926;5.340;2024-02-21T02:48:40;9.70;99.90
17992;DHT22;9121;50.926;5.340;2024-02-21T02:51:07;9.70;99.90
17992;DHT22;9121;50.926;5.340;2024-02-21T02:53:34;9.70;99.90
17992;DHT22;9121;50.926;5.340;2024-02-21T02:56:01;9.70;99.90
17992;DHT22;9121;50.926;5.340;2024-02-21T02:58:30;9.70;99.90
17992;DHT22;9121;50.926;5.340;2024-02-21T03:00:57;9.70;99.90
17992;DHT22;9121;50.926;5.340;2024-02-21T03:03:24;9.70;99.90
17992;DHT22;9121;50.926;5.340;2024-02-21T03:05:50;9.70;99.90
17992;DHT22;9121;50.926;5.340;2024-02-21T03:08:17;9.70;99.90
17992;DHT22;9121;50.926;5.340;2024-02-21T03:10:44;9.70;99.90
17992;DHT22;9121;50.926;5.340;2024-02-21T03:13:11;9.70;99.90
17992;DHT22;9121;50.926;5.340;2024-02-21T03:15:39;9.80;99.90
17992;DHT22;9121;50.926;5.340;2024-02-21T03:18:06;9.70;99.90
17992;DHT22;9121;50.926;5.340;2024-02-21T03:20:33;9.60;99.90
17992;DHT22;9121;50.926;5.340;2024-02-21T03:23:00;9.70;99.90
17992;DHT22;9121;50.926;5.340;2024-02-21T03:25:27;9.60;99.90
17992;DHT22;9121;50.926;5.340;2024-02-21T03:27:54;9.60;99.90
17992;DHT22;9121;50.926;5.340;2024-02-21T03:30:21;9.60;99.90
17992;DHT22;9121;50.926;5.340;2024-02-21T03:32:50;9.60;99.90
17992;DHT22;9121;50.926;5.340;2024-02-21T03:35:17;9.60;99.90
17992;DHT22;9121;50.926;5.340;2024-02-21T03:37:45;9.60;99.90
17992;DHT22;9121;50.926;5.340;2024-02-21T03:40:12;9.60;99.90
17992;DHT22;9121;50.926;5.340;2024-02-21T03:42:39;9.50;99.90
17992;DHT22;9121;50.926;5.340;2024-02-21T03:45:07;9.60;99.90
17992;DHT22;9121;50.926;5.340;2024-02-21T03:47:34;9.60;99.90
17992;DHT22;9121;50.926;5.340;2024-02-21T03:50:02;9.60;99.90
17992;DHT22;9121;50.926;5.340;2024-02-21T03:52:30;9.60;99.90
17992;DHT22;9121;50.926;5.340;2024-02-21T03:54:56;9.50;99.90
17992;DHT22;9121;50.926;5.340;2024-02-21T03:57:23;9.50;99.90
17992;DHT22;9121;50.926;5.340;2024-02-21T03:59:51;9.50;99.90
17992;DHT22;9121;50.926;5.340;2024-02-21T04:02:18;9.50;99.90
17992;DHT22;9121;50.926;5.340;2024-02-21T04:04:45;9.60;99.90
17992;DHT22;9121;50.926;5.340;2024-02-21T04:07:15;9.50;99.90
17992;DHT22;9121;50.926;5.340;2024-02-21T04:09:42;9.60;99.90
17992;DHT22;9121;50.926;5.340;2024-02-21T04:12:09;9.60;99.90
17992;DHT22;9121;50.926;5.340;2024-02-21T04:14:36;9.60;99.90
17992;DHT22;9121;50.926;5.340;2024-02-21T04:17:03;9.60;99.90
17992;DHT22;9121;50.926;5.340;2024-02-21T04:19:30;9.50;99.90
17992;DHT22;9121;50.926;5.340;2024-02-21T04:21:58;9.50;99.90
17992;DHT22;9121;50.926;5.340;2024-02-21T04:24:27;9.50;99.90
17992;DHT22;9121;50.926;5.340;2024-02-21T04:26:53;9.60;99.90
17992;DHT22;9121;50.926;5.340;2024-02-21T04:29:20;9.60;99.90
17992;DHT22;9121;50.926;5.340;2024-02-21T04:31:48;9.60;99.90
17992;DHT22;9121;50.926;5.340;2024-02-21T04:34:14;9.50;99.90
17992;DHT22;9121;50.926;5.340;2024-02-21T04:36:41;9.60;99.90
17992;DHT22;9121;50.926;5.340;2024-02-21T04:39:09;9.60;99.90
17992;DHT22;9121;50.926;5.340;2024-02-21T04:41:38;9.60;99.90
17992;DHT22;9121;50.926;5.340;2024-02-21T04:44:05;9.50;99.90
17992;DHT22;9121;50.926;5.340;2024-02-21T04:46:32;9.50;99.90
17992;DHT22;9121;50.926;5.340;2024-02-21T04:48:59;9.50;99.90
17992;DHT22;9121;50.926;5.340;2024-02-21T04:51:26;9.50;99.90
17992;DHT22;9121;50.926;5.340;2024-02-21T04:53:52;9.60;99.90
17992;DHT22;9121;50.926;5.340;2024-02-21T04:56:19;9.50;99.90
17992;DHT22;9121;50.926;5.340;2024-02-21T04:58:48;9.50;99.90
17992;DHT22;9121;50.926;5.340;2024-02-21T05:01:15;9.50;99.90
17992;DHT22;9121;50.926;5.340;2024-02-21T05:03:42;9.50;99.90
17992;DHT22;9121;50.926;5.340;2024-02-21T05:06:09;9.50;99.90
17992;DHT22;9121;50.926;5.340;2024-02-21T05:08:36;9.50;99.90
17992;DHT22;9121;50.926;5.340;2024-02-21T05:11:03;9.50;99.90
17992;DHT22;9121;50.926;5.340;2024-02-21T05:13:30;9.50;99.90
17992;DHT22;9121;50.926;5.340;2024-02-21T05:15:58;9.50;99.90
17992;DHT22;9121;50.926;5.340;2024-02-21T05:18:27;9.50;99.90
17992;DHT22;9121;50.926;5.340;2024-02-21T05:20:53;9.50;99.90
17992;DHT22;9121;50.926;5.340;2024-02-21T05:23:20;9.40;99.90
17992;DHT22;9121;50.926;5.340;2024-02-21T05:25:47;9.40;99.90
17992;DHT22;9121;50.926;5.340;2024-02-21T05:28:14;9.40;99.90
17992;DHT22;9121;50.926;5.340;2024-02-21T05:30:41;9.40;99.90
17992;DHT22;9121;50.926;5.340;2024-02-21T05:33:10;9.40;99.90
17992;DHT22;9121;50.926;5.340;2024-02-21T05:35:38;9.30;99.90
17992;DHT22;9121;50.926;5.340;2024-02-21T05:38:05;9.40;99.90
17992;DHT22;9121;50.926;5.340;2024-02-21T05:40:37;9.50;99.90
17992;DHT22;9121;50.926;5.340;2024-02-21T05:43:04;9.40;99.90
17992;DHT22;9121;50.926;5.340;2024-02-21T05:45:31;9.40;99.90
17992;DHT22;9121;50.926;5.340;2024-02-21T05:47:58;9.40;99.90
17992;DHT22;9121;50.926;5.340;2024-02-21T05:50:26;9.40;99.90
17992;DHT22;9121;50.926;5.340;2024-02-21T05:52:54;9.40;99.90
17992;DHT22;9121;50.926;5.340;2024-02-21T05:55:22;9.40;99.90
17992;DHT22;9121;50.926;5.340;2024-02-21T05:57:49;9.30;99.90
17992;DHT22;9121;50.926;5.340;2024-02-21T06:00:16;9.30;99.90
17992;DHT22;9121;50.926;5.340;2024-02-21T06:02:43;9.30;99.90
17992;DHT22;9121;50.926;5.340;2024-02-21T06:05:10;9.30;99.90
17992;DHT22;9121;50.926;5.340;2024-02-21T06:07:39;9.20;99.90
17992;DHT22;9121;50.926;5.340;2024-02-21T06:10:07;9.20;99.90
17992;DHT22;9121;50.926;5.340;2024-02-21T06:12:34;9.20;99.90
17992;DHT22;9121;50.926;5.340;2024-02-21T06:15:01;9.20;99.90
17992;DHT22;9121;50.926;5.340;2024-02-21T06:17:28;9.20;99.90
17992;DHT22;9121;50.926;5.340;2024-02-21T06:19:55;9.30;99.90
17992;DHT22;9121;50.926;5.340;2024-02-21T06:22:22;9.30;99.90
17992;DHT22;9121;50.926;5.340;2024-02-21T06:24:50;9.20;99.90
17992;DHT22;9121;50.926;5.340;2024-02-21T06:27:18;9.20;99.90
17992;DHT22;9121;50.926;5.340;2024-02-21T06:29:45;9.20;99.90
17992;DHT22;9121;50.926;5.340;2024-02-21T06:32:12;9.20;99.90
17992;DHT22;9121;50.926;5.340;2024-02-21T06:34:39;9.20;99.90
17992;DHT22;9121;50.926;5.340;2024-02-21T06:37:06;9.20;99.90
17992;DHT22;9121;50.926;5.340;2024-02-21T06:39:34;9.20;99.90
17992;DHT22;9121;50.926;5.340;2024-02-21T06:42:04;9.20;99.90
17992;DHT22;9121;50.926;5.340;2024-02-21T06:44:31;9.20;99.90
17992;DHT22;9121;50.926;5.340;2024-02-21T06:47:02;9.10;99.90
17992;DHT22;9121;50.926;5.340;2024-02-21T06:49:29;9.20;99.90
17992;DHT22;9121;50.926;5.340;2024-02-21T06:51:56;9.00;99.90
17992;DHT22;9121;50.926;5.340;2024-02-21T06:54:22;9.00;99.90
17992;DHT22;9121;50.926;5.340;2024-02-21T06:56:50;9.00;99.90
17992;DHT22;9121;50.926;5.340;2024-02-21T06:59:18;8.90;99.90
17992;DHT22;9121;50.926;5.340;2024-02-21T07:01:46;8.90;99.90
17992;DHT22;9121;50.926;5.340;2024-02-21T07:04:13;8.90;99.90
17992;DHT22;9121;50.926;5.340;2024-02-21T07:06:40;8.90;99.90
17992;DHT22;9121;50.926;5.340;2024-02-21T07:09:07;8.90;99.90
17992;DHT22;9121;50.926;5.340;2024-02-21T07:11:34;8.90;99.90
17992;DHT22;9121;50.926;5.340;2024-02-21T07:14:01;8.90;99.90
17992;DHT22;9121;50.926;5.340;2024-02-21T07:16:29;8.90;99.90
17992;DHT22;9121;50.926;5.340;2024-02-21T07:18:58;8.90;99.90
17992;DHT22;9121;50.926;5.340;2024-02-21T07:21:25;8.90;99.90
17992;DHT22;9121;50.926;5.340;2024-02-21T07:23:52;8.90;99.90
17992;DHT22;9121;50.926;5.340;2024-02-21T07:26:19;8.90;99.90
17992;DHT22;9121;50.926;5.340;2024-02-21T07:28:46;8.90;99.90
17992;DHT22;9121;50.926;5.340;2024-02-21T07:31:13;8.90;99.90
17992;DHT22;9121;50.926;5.340;2024-02-21T07:33:41;8.90;99.90
17992;DHT22;9121;50.926;5.340;2024-02-21T07:36:10;9.00;99.90
17992;DHT22;9121;50.926;5.340;2024-02-21T07:38:37;8.90;99.90
17992;DHT22;9121;50.926;5.340;2024-02-21T07:41:04;9.00;99.90
17992;DHT22;9121;50.926;5.340;2024-02-21T07:43:31;9.00;99.90
17992;DHT22;9121;50.926;5.340;2024-02-21T07:45:58;9.00;99.90
17992;DHT22;9121;50.926;5.340;2024-02-21T07:48:25;9.00;99.90
17992;DHT22;9121;50.926;5.340;2024-02-21T07:50:53;9.00;99.90
17992;DHT22;9121;50.926;5.340;2024-02-21T07:53:20;9.10;99.90
17992;DHT22;9121;50.926;5.340;2024-02-21T07:55:47;9.10;99.90
17992;DHT22;9121;50.926;5.340;2024-02-21T07:58:14;9.10;99.90
17992;DHT22;9121;50.926;5.340;2024-02-21T08:00:41;9.10;99.90
17992;DHT22;9121;50.926;5.340;2024-02-21T08:03:08;9.10;99.90
17992;DHT22;9121;50.926;5.340;2024-02-21T08:05:35;9.10;99.90
17992;DHT22;9121;50.926;5.340;2024-02-21T08:08:03;9.10;99.90
17992;DHT22;9121;50.926;5.340;2024-02-21T08:10:30;9.20;99.90
17992;DHT22;9121;50.926;5.340;2024-02-21T08:12:57;9.20;99.90
17992;DHT22;9121;50.926;5.340;2024-02-21T08:15:24;9.30;99.90
17992;DHT22;9121;50.926;5.340;2024-02-21T08:17:55;9.20;99.90
17992;DHT22;9121;50.926;5.340;2024-02-21T08:20:25;9.20;99.90
17992;DHT22;9121;50.926;5.340;2024-02-21T08:22:52;9.30;99.90
17992;DHT22;9121;50.926;5.340;2024-02-21T08:25:20;9.30;99.90
17992;DHT22;9121;50.926;5.340;2024-02-21T08:27:47;9.40;99.90
17992;DHT22;9121;50.926;5.340;2024-02-21T08:30:15;9.40;99.90
17992;DHT22;9121;50.926;5.340;2024-02-21T08:32:41;9.50;99.90
17992;DHT22;9121;50.926;5.340;2024-02-21T08:35:09;9.60;99.90
17992;DHT22;9121;50.926;5.340;2024-02-21T08:37:36;9.60;99.90
17992;DHT22;9121;50.926;5.340;2024-02-21T08:40:03;9.60;99.90
17992;DHT22;9121;50.926;5.340;2024-02-21T08:42:39;9.60;99.90
17992;DHT22;9121;50.926;5.340;2024-02-21T08:45:08;9.60;99.90
17992;DHT22;9121;50.926;5.340;2024-02-21T08:47:35;9.60;99.90
17992;DHT22;9121;50.926;5.340;2024-02-21T08:50:02;9.60;99.90
17992;DHT22;9121;50.926;5.340;2024-02-21T08:52:31;9.70;99.90
17992;DHT22;9121;50.926;5.340;2024-02-21T08:54:58;9.80;99.90
17992;DHT22;9121;50.926;5.340;2024-02-21T08:57:26;9.80;99.90
17992;DHT22;9121;50.926;5.340;2024-02-21T08:59:55;9.80;99.90
17992;DHT22;9121;50.926;5.340;2024-02-21T09:02:21;9.80;99.90
17992;DHT22;9121;50.926;5.340;2024-02-21T09:04:48;9.90;99.90
17992;DHT22;9121;50.926;5.340;2024-02-21T09:07:15;9.90;99.90
17992;DHT22;9121;50.926;5.340;2024-02-21T09:09:43;9.90;99.90
17992;DHT22;9121;50.926;5.340;2024-02-21T09:12:10;9.90;99.90
17992;DHT22;9121;50.926;5.340;2024-02-21T09:14:37;9.80;99.90
17992;DHT22;9121;50.926;5.340;2024-02-21T09:17:05;9.90;99.90
17992;DHT22;9121;50.926;5.340;2024-02-21T09:19:33;9.90;99.90
17992;DHT22;9121;50.926;5.340;2024-02-21T09:22:00;10.00;99.90
17992;DHT22;9121;50.926;5.340;2024-02-21T09:24:28;10.00;99.90
17992;DHT22;9121;50.926;5.340;2024-02-21T09:26:55;10.10;99.90
17992;DHT22;9121;50.926;5.340;2024-02-21T09:29:22;10.00;99.90
17992;DHT22;9121;50.926;5.340;2024-02-21T09:31:49;10.10;99.90
17992;DHT22;9121;50.926;5.340;2024-02-21T09:34:17;10.10;99.90
17992;DHT22;9121;50.926;5.340;2024-02-21T09:36:44;10.20;99.90
17992;DHT22;9121;50.926;5.340;2024-02-21T09:39:12;10.20;99.90
17992;DHT22;9121;50.926;5.340;2024-02-21T09:41:45;10.10;99.90
17992;DHT22;9121;50.926;5.340;2024-02-21T09:44:14;10.20;99.90
17992;DHT22;9121;50.926;5.340;2024-02-21T09:46:55;10.20;99.90
17992;DHT22;9121;50.926;5.340;2024-02-21T09:49:30;10.30;99.90
17992;DHT22;9121;50.926;5.340;2024-02-21T09:52:00;10.30;99.90
17992;DHT22;9121;50.926;5.340;2024-02-21T09:54:28;10.30;99.90
17992;DHT22;9121;50.926;5.340;2024-02-21T09:56:55;10.30;99.90
17992;DHT22;9121;50.926;5.340;2024-02-21T09:59:22;10.30;99.90
17992;DHT22;9121;50.926;5.340;2024-02-21T10:01:50;10.40;99.90
17992;DHT22;9121;50.926;5.340;2024-02-21T10:04:17;10.40;99.90
17992;DHT22;9121;50.926;5.340;2024-02-21T10:06:46;10.50;99.90
17992;DHT22;9121;50.926;5.340;2024-02-21T10:09:21;10.60;99.90
17992;DHT22;9121;50.926;5.340;2024-02-21T10:11:48;10.70;99.90
17992;DHT22;9121;50.926;5.340;2024-02-21T10:14:16;10.70;99.90
17992;DHT22;9121;50.926;5.340;2024-02-21T10:16:44;10.80;99.90
17992;DHT22;9121;50.926;5.340;2024-02-21T10:19:18;10.80;99.90
17992;DHT22;9121;50.926;5.340;2024-02-21T10:22:01;11.10;99.90
17992;DHT22;9121;50.926;5.340;2024-02-21T10:24:29;11.00;99.90
17992;DHT22;9121;50.926;5.340;2024-02-21T10:27:01;11.10;99.90
17992;DHT22;9121;50.926;5.340;2024-02-21T10:29:29;11.20;99.90
17992;DHT22;9121;50.926;5.340;2024-02-21T10:32:07;11.10;99.90
17992;DHT22;9121;50.926;5.340;2024-02-21T10:34:35;11.10;99.90
17992;DHT22;9121;50.926;5.340;2024-02-21T10:37:04;11.20;99.90
17992;DHT22;9121;50.926;5.340;2024-02-21T10:39:32;11.20;99.90
17992;DHT22;9121;50.926;5.340;2024-02-21T10:42:00;11.20;99.90
17992;DHT22;9121;50.926;5.340;2024-02-21T10:44:30;11.30;99.90
17992;DHT22;9121;50.926;5.340;2024-02-21T10:46:58;11.20;99.90
17992;DHT22;9121;50.926;5.340;2024-02-21T10:49:26;11.20;99.90
17992;DHT22;9121;50.926;5.340;2024-02-21T10:51:55;11.30;99.90
17992;DHT22;9121;50.926;5.340;2024-02-21T10:54:44;11.30;99.90
17992;DHT22;9121;50.926;5.340;2024-02-21T10:57:13;11.20;99.90
17992;DHT22;9121;50.926;5.340;2024-02-21T10:59:41;11.10;99.90
17992;DHT22;9121;50.926;5.340;2024-02-21T11:02:09;11.20;99.90
17992;DHT22;9121;50.926;5.340;2024-02-21T11:04:36;11.40;99.90
17992;DHT22;9121;50.926;5.340;2024-02-21T11:07:05;11.50;99.90
17992;DHT22;9121;50.926;5.340;2024-02-21T11:09:34;11.50;99.90
17992;DHT22;9121;50.926;5.340;2024-02-21T11:12:03;11.60;99.90
17992;DHT22;9121;50.926;5.340;2024-02-21T11:14:31;11.60;99.90
17992;DHT22;9121;50.926;5.340;2024-02-21T11:17:01;11.60;99.90
17992;DHT22;9121;50.926;5.340;2024-02-21T11:19:30;11.60;99.90
17992;DHT22;9121;50.926;5.340;2024-02-21T11:21:57;11.70;99.90
17992;DHT22;9121;50.926;5.340;2024-02-21T11:24:27;11.70;99.90
17992;DHT22;9121;50.926;5.340;2024-02-21T11:26:56;11.70;99.90
17992;DHT22;9121;50.926;5.340;2024-02-21T11:29:24;11.70;99.90
17992;DHT22;9121;50.926;5.340;2024-02-21T11:31:51;11.70;99.90
17992;DHT22;9121;50.926;5.340;2024-02-21T11:34:19;11.80;99.90
17992;DHT22;9121;50.926;5.340;2024-02-21T11:36:47;11.80;99.90
17992;DHT22;9121;50.926;5.340;2024-02-21T11:39:21;11.80;99.90
17992;DHT22;9121;50.926;5.340;2024-02-21T11:42:01;11.70;99.90
17992;DHT22;9121;50.926;5.340;2024-02-21T11:44:28;11.90;99.90
17992;DHT22;9121;50.926;5.340;2024-02-21T11:46:55;11.80;99.90
17992;DHT22;9121;50.926;5.340;2024-02-21T11:49:24;11.80;99.90
17992;DHT22;9121;50.926;5.340;2024-02-21T11:51:58;11.80;99.90
17992;DHT22;9121;50.926;5.340;2024-02-21T11:54:25;11.90;99.90
17992;DHT22;9121;50.926;5.340;2024-02-21T11:56:52;11.80;99.90
17992;DHT22;9121;50.926;5.340;2024-02-21T11:59:20;11.90;99.90
17992;DHT22;9121;50.926;5.340;2024-02-21T12:01:48;12.00;99.90
17992;DHT22;9121;50.926;5.340;2024-02-21T12:04:17;12.00;99.90
17992;DHT22;9121;50.926;5.340;2024-02-21T12:06:45;12.00;99.90
17992;DHT22;9121;50.926;5.340;2024-02-21T12:09:14;12.10;99.90
17992;DHT22;9121;50.926;5.340;2024-02-21T12:11:41;12.10;99.90
17992;DHT22;9121;50.926;5.340;2024-02-21T12:14:08;12.20;99.90
17992;DHT22;9121;50.926;5.340;2024-02-21T12:16:37;12.30;99.90
17992;DHT22;9121;50.926;5.340;2024-02-21T12:19:04;12.30;99.90
17992;DHT22;9121;50.926;5.340;2024-02-21T12:21:32;12.20;99.90
17992;DHT22;9121;50.926;5.340;2024-02-21T12:24:11;12.10;99.90
17992;DHT22;9121;50.926;5.340;2024-02-21T12:26:39;11.80;99.90
17992;DHT22;9121;50.926;5.340;2024-02-21T12:29:05;11.80;99.90
17992;DHT22;9121;50.926;5.340;2024-02-21T12:31:36;11.80;99.90
17992;DHT22;9121;50.926;5.340;2024-02-21T12:34:03;11.80;99.90
17992;DHT22;9121;50.926;5.340;2024-02-21T12:36:30;11.80;99.90
17992;DHT22;9121;50.926;5.340;2024-02-21T12:38:57;11.70;99.90
17992;DHT22;9121;50.926;5.340;2024-02-21T12:41:24;11.70;99.90
17992;DHT22;9121;50.926;5.340;2024-02-21T12:43:52;11.70;99.90
17992;DHT22;9121;50.926;5.340;2024-02-21T12:46:19;11.60;99.90
17992;DHT22;9121;50.926;5.340;2024-02-21T12:48:48;11.60;99.90
17992;DHT22;9121;50.926;5.340;2024-02-21T12:51:14;11.80;99.90
17992;DHT22;9121;50.926;5.340;2024-02-21T12:53:46;11.80;99.90
17992;DHT22;9121;50.926;5.340;2024-02-21T12:56:15;11.80;99.90
17992;DHT22;9121;50.926;5.340;2024-02-21T12:58:42;11.70;99.90
17992;DHT22;9121;50.926;5.340;2024-02-21T13:01:10;11.60;99.90
17992;DHT22;9121;50.926;5.340;2024-02-21T13:03:37;11.70;99.90
17992;DHT22;9121;50.926;5.340;2024-02-21T13:06:06;11.70;99.90
17992;DHT22;9121;50.926;5.340;2024-02-21T13:08:35;11.70;99.90
17992;DHT22;9121;50.926;5.340;2024-02-21T13:11:03;11.70;99.90
17992;DHT22;9121;50.926;5.340;2024-02-21T13:13:30;11.60;99.90
17992;DHT22;9121;50.926;5.340;2024-02-21T13:15:57;11.60;99.90
17992;DHT22;9121;50.926;5.340;2024-02-21T13:18:25;11.60;99.90
17992;DHT22;9121;50.926;5.340;2024-02-21T13:20:52;11.70;99.90
17992;DHT22;9121;50.926;5.340;2024-02-21T13:23:20;11.70;99.90
17992;DHT22;9121;50.926;5.340;2024-02-21T13:25:48;11.70;99.90
17992;DHT22;9121;50.926;5.340;2024-02-21T13:28:15;11.80;99.90
17992;DHT22;9121;50.926;5.340;2024-02-21T13:30:42;11.70;99.90
17992;DHT22;9121;50.926;5.340;2024-02-21T13:33:09;11.70;99.90
17992;DHT22;9121;50.926;5.340;2024-02-21T13:35:36;11.70;99.90
17992;DHT22;9121;50.926;5.340;2024-02-21T13:38:04;11.70;99.90
17992;DHT22;9121;50.926;5.340;2024-02-21T13:40:32;11.70;99.90
17992;DHT22;9121;50.926;5.340;2024-02-21T13:42:59;11.80;99.90
17992;DHT22;9121;50.926;5.340;2024-02-21T13:45:26;11.70;99.90
17992;DHT22;9121;50.926;5.340;2024-02-21T13:47:54;11.80;99.90
17992;DHT22;9121;50.926;5.340;2024-02-21T13:50:25;11.70;99.90
17992;DHT22;9121;50.926;5.340;2024-02-21T13:52:55;11.70;99.90
17992;DHT22;9121;50.926;5.340;2024-02-21T13:55:22;11.80;99.90
17992;DHT22;9121;50.926;5.340;2024-02-21T13:57:53;11.80;99.90
17992;DHT22;9121;50.926;5.340;2024-02-21T14:00:20;11.80;99.90
17992;DHT22;9121;50.926;5.340;2024-02-21T14:02:47;11.80;99.90
17992;DHT22;9121;50.926;5.340;2024-02-21T14:05:14;11.70;99.90
17992;DHT22;9121;50.926;5.340;2024-02-21T14:07:41;11.60;99.90
17992;DHT22;9121;50.926;5.340;2024-02-21T14:10:08;11.60;99.90
17992;DHT22;9121;50.926;5.340;2024-02-21T14:12:36;11.70;99.90
17992;DHT22;9121;50.926;5.340;2024-02-21T14:15:06;11.70;99.90
17992;DHT22;9121;50.926;5.340;2024-02-21T14:17:33;11.60;99.90
17992;DHT22;9121;50.926;5.340;2024-02-21T14:19:59;11.60;99.90
17992;DHT22;9121;50.926;5.340;2024-02-21T14:22:26;11.60;99.90
17992;DHT22;9121;50.926;5.340;2024-02-21T14:24:53;11.60;99.90
17992;DHT22;9121;50.926;5.340;2024-02-21T14:27:22;11.60;99.90
17992;DHT22;9121;50.926;5.340;2024-02-21T14:29:49;11.70;99.90
17992;DHT22;9121;50.926;5.340;2024-02-21T14:32:17;11.60;99.90
17992;DHT22;9121;50.926;5.340;2024-02-21T14:34:44;11.70;99.90
17992;DHT22;9121;50.926;5.340;2024-02-21T14:37:11;11.70;99.90
17992;DHT22;9121;50.926;5.340;2024-02-21T14:39:38;11.70;99.90
17992;DHT22;9121;50.926;5.340;2024-02-21T14:42:06;11.70;99.90
17992;DHT22;9121;50.926;5.340;2024-02-21T14:44:35;11.70;99.90
17992;DHT22;9121;50.926;5.340;2024-02-21T14:47:02;11.70;99.90
17992;DHT22;9121;50.926;5.340;2024-02-21T14:49:31;11.70;99.90
17992;DHT22;9121;50.926;5.340;2024-02-21T14:51:58;11.60;99.90
17992;DHT22;9121;50.926;5.340;2024-02-21T14:54:25;11.50;99.90
17992;DHT22;9121;50.926;5.340;2024-02-21T14:56:52;11.50;99.90
17992;DHT22;9121;50.926;5.340;2024-02-21T14:59:20;11.50;99.90
17992;DHT22;9121;50.926;5.340;2024-02-21T15:01:46;11.50;99.90
17992;DHT22;9121;50.926;5.340;2024-02-21T15:04:14;11.50;99.90
17992;DHT22;9121;50.926;5.340;2024-02-21T15:06:42;11.50;99.90
17992;DHT22;9121;50.926;5.340;2024-02-21T15:09:10;11.40;99.90
17992;DHT22;9121;50.926;5.340;2024-02-21T15:11:37;11.30;99.90
17992;DHT22;9121;50.926;5.340;2024-02-21T15:14:04;11.20;99.90
17992;DHT22;9121;50.926;5.340;2024-02-21T15:16:31;11.20;99.90
17992;DHT22;9121;50.926;5.340;2024-02-21T15:18:59;11.10;99.90
17992;DHT22;9121;50.926;5.340;2024-02-21T15:21:26;11.10;99.90
17992;DHT22;9121;50.926;5.340;2024-02-21T15:23:54;11.00;99.90
17992;DHT22;9121;50.926;5.340;2024-02-21T15:26:22;10.90;99.90
17992;DHT22;9121;50.926;5.340;2024-02-21T15:28:49;10.80;99.90
17992;DHT22;9121;50.926;5.340;2024-02-21T15:31:20;10.80;99.90
17992;DHT22;9121;50.926;5.340;2024-02-21T15:33:48;10.70;99.90
17992;DHT22;9121;50.926;5.340;2024-02-21T15:36:15;10.70;99.90
17992;DHT22;9121;50.926;5.340;2024-02-21T15:38:42;10.60;99.90
17992;DHT22;9121;50.926;5.340;2024-02-21T15:41:12;10.50;99.90
17992;DHT22;9121;50.926;5.340;2024-02-21T15:43:39;10.50;99.90
17992;DHT22;9121;50.926;5.340;2024-02-21T15:46:07;10.50;99.90
17992;DHT22;9121;50.926;5.340;2024-02-21T15:48:33;10.40;99.90
17992;DHT22;9121;50.926;5.340;2024-02-21T15:51:00;10.40;99.90
17992;DHT22;9121;50.926;5.340;2024-02-21T15:53:26;10.40;99.90
17992;DHT22;9121;50.926;5.340;2024-02-21T15:55:53;10.40;99.90
17992;DHT22;9121;50.926;5.340;2024-02-21T15:58:21;10.30;99.90